Terminal Aerodrome Forecast
Issued by NWS

Home | Current Version | Previous Version | Text Only | Print | Product List | Glossary On
Versions: 1 2 3 4 5 6 7 8 9 10 11 12
443
FTUS46 KSEW 032320
TAFPAE
TAF
KPAE 032320Z 0400/0424 33010KT P6SM SCT060 BKN120 BKN200
     FM040600 33007KT P6SM VCSH BKN050 OVC120
     FM041200 VRB04KT P6SM SCT015 OVC040
      TEMPO 0412/0416 -SHRA BKN015 OVC040
     FM041900 33007KT P6SM SCT025 BKN050=

USA.gov is the U.S. government's official web portal to all federal, state and local government web resources and services.